Latest Weather Observations for Sydney - Observatory Hill

IDN60901

Issued at 7:01 am EST Thursday 29 June 2017 (issued every 10 minutes, with the page automatically refreshed every 10 minutes)

About weather observations | Map of Sydney area stations | Latest observations for Sydney area | Other Formats
Station Details ID: 066062 Name: SYDNEY (OBSERVATORY HILL) Lat: -33.86 Lon: 151.21 Height: 39.0 m
Data from the previous 72 hours. | See also: Recent months at Sydney - Observatory Hill

* Apparent temperature (App Temp) for Sydney - Observatory Hill is calculated using temperature observations collected at Sydney - Observatory Hill and wind observations collected at Fort Denison, as wind observations are not currently provided for Sydney - Observatory Hill.

Date/Time
EST
Temp
°C
App
Temp
°C
Dew
Point
°C
Rel
Hum
%
Delta-T
°C
Wind Press
QNH
hPa
Press
MSL
hPa
Rain since
9am
mm
Dir  Spd
km/h
Gust
km/h
Spd
kts
Gust
kts
29/07:00am 9.9 5.1 4.9 71 2.2 W 19 - 10 - 1020.4 1020.4 1.6
29/06:30am 10.1 5.8 5.3 72 2.2 W 17 - 9 - 1020.6 1020.6 1.6
29/06:00am 9.9 7.4 4.7 70 2.3 W 7 - 4 - 1019.8 1019.8 1.6
29/05:30am 10.2 4.9 5.0 70 2.4 W 22 - 12 - 1021.0 1021.0 1.6
29/05:00am 10.3 7.1 5.1 70 2.4 WNW 11 - 6 - 1020.7 1020.7 1.6
29/04:30am 10.2 7.4 5.2 71 2.3 WNW 9 - 5 - 1020.8 1020.8 1.6
29/04:00am 10.3 6.4 5.3 71 2.3 W 15 - 8 - 1021.1 1021.1 1.6
29/03:30am 10.4 6.2 5.6 72 2.2 W 17 - 9 - 1021.1 1021.1 1.6
29/03:00am 10.6 6.4 5.8 72 2.2 W 17 - 9 - 1021.2 1021.2 1.6
29/02:30am 10.6 6.6 6.6 76 1.9 WNW 17 - 9 - 1021.8 1021.8 1.6
29/02:00am 10.5 6.3 5.9 73 2.1 W 17 - 9 - 1021.4 1021.4 1.6
29/01:30am 11.0 6.6 6.6 74 2.1 W 19 - 10 - 1021.5 1021.5 1.6
29/01:00am 11.0 7.1 6.9 76 1.9 W 17 - 9 - 1020.8 1020.8 1.6
29/12:30am 11.1 8.6 8.3 83 1.4 W 11 - 6 - 1021.5 1021.5 1.6
29/12:00am 11.4 8.4 9.1 86 1.1 W 15 - 8 - 1021.6 1021.6 1.6
 
Date/Time
EST
Temp
°C
App
Temp
°C
Dew
Point
°C
Rel
Hum
%
Delta-T
°C
Wind Press
QNH
hPa
Press
MSL
hPa
Rain since
9am
mm
Dir  Spd
km/h
Gust
km/h
Spd
kts
Gust
kts
28/11:30pm 11.7 8.5 9.9 89 0.9 W 17 - 9 - 1022.2 1022.2 1.6
28/11:00pm 11.8 8.6 10.0 89 0.9 W 17 - 9 - 1022.0 1022.0 1.6
28/10:30pm 11.8 8.6 10.0 89 0.9 W 17 - 9 - 1022.0 1022.0 1.6
28/10:00pm 11.9 9.5 10.1 89 0.9 W 13 - 7 - 1022.3 1022.3 1.6
28/09:30pm 11.8 10.1 10.0 89 0.9 WSW 9 - 5 - 1022.2 1022.2 1.6
28/09:00pm 11.7 10.6 9.8 88 1.0 NW 6 - 3 - 1022.4 1022.4 1.6
28/08:30pm 11.8 9.4 9.9 88 1.0 W 13 - 7 - 1021.9 1021.9 1.6
28/08:00pm 12.1 9.7 10.2 88 1.0 WNW 13 - 7 - 1022.2 1022.2 1.6
28/07:30pm 12.1 9.3 10.0 87 1.1 W 15 - 8 - 1021.8 1021.8 1.6
28/07:00pm 12.3 9.1 10.0 86 1.2 W 17 - 9 - 1021.6 1021.6 1.6
28/06:30pm 12.4 10.0 10.0 85 1.2 W 13 - 7 - 1021.2 1021.2 1.6
28/06:00pm 12.6 10.2 10.0 84 1.3 W 13 - 7 - 1021.3 1021.3 1.6
28/05:30pm 12.8 11.2 10.2 84 1.3 WSW 9 - 5 - 1021.2 1021.2 1.6
28/05:00pm 13.0 11.9 10.5 85 1.3 WNW 7 - 4 - 1021.3 1021.3 1.6
28/04:30pm 13.0 11.5 10.4 84 1.4 WNW 9 - 5 - 1021.2 1021.2 1.6
28/04:00pm 13.1 11.2 10.5 84 1.3 W 11 - 6 - 1021.3 1021.3 1.6
28/03:30pm 12.9 10.9 10.3 84 1.3 W 11 - 6 - 1021.3 1021.3 1.4
28/03:00pm 12.9 11.3 10.3 84 1.3 WNW 9 - 5 - 1021.3 1021.3 1.4
28/02:30pm 12.7 11.0 9.9 83 1.4 WNW 9 - 5 - 1021.4 1021.4 1.4
28/02:00pm 12.8 10.7 9.6 81 1.6 WNW 11 - 6 - 1021.5 1021.5 0.8
28/01:30pm 12.9 9.9 9.4 79 1.8 WNW 15 - 8 - 1021.5 1021.5 0.8
28/01:00pm 13.3 9.5 9.0 75 2.2 WNW 19 - 10 - 1021.5 1021.5 0.2
28/12:30pm 13.8 9.3 8.4 70 2.7 WNW 22 - 12 - 1021.5 1021.5 0.0
28/12:00pm 14.3 10.3 8.3 67 3.0 W 19 - 10 - 1021.3 1021.3 0.0
28/11:30am 13.9 9.7 8.1 68 2.9 W 20 - 11 - 1021.8 1021.8 0.0
28/11:00am 14.2 10.2 8.4 68 2.9 W 19 - 10 - 1022.2 1022.2 0.0
28/10:30am 13.6 10.0 8.2 70 2.7 W 17 - 9 - 1022.7 1022.7 0.0
28/10:00am 13.6 10.0 8.4 71 2.6 WNW 17 - 9 - 1022.9 1022.9 0.0
28/09:30am 13.3 10.6 8.8 74 2.3 WNW 13 - 7 - 1023.2 1023.2 0.0
28/09:00am 12.6 10.7 8.9 78 1.8 W 9 - 5 - 1022.7 1022.7 0.0
28/08:30am 12.1 10.5 8.6 79 1.7 WNW 7 - 4 - 1022.9 1022.9 0.0
28/08:00am 11.7 10.0 8.4 80 1.6 W 7 - 4 - 1022.8 1022.8 0.0
28/07:30am 11.5 9.4 8.4 81 1.5 W 9 - 5 - 1022.9 1022.9 0.0
28/07:00am 11.5 9.0 8.4 81 1.5 W 11 - 6 - 1023.1 1023.1 0.0
28/06:30am 11.5 9.5 8.5 82 1.5 WNW 9 - 5 - 1023.0 1023.0 0.0
28/06:00am 11.4 9.2 7.9 79 1.7 W 9 - 5 - 1022.6 1022.6 0.0
28/05:30am 11.4 8.5 8.3 81 1.5 W 13 - 7 - 1022.4 1022.4 0.0
28/05:00am 11.5 9.4 8.2 80 1.6 WNW 9 - 5 - 1022.5 1022.5 0.0
28/04:30am 11.5 9.0 8.4 81 1.5 WNW 11 - 6 - 1022.7 1022.7 0.0
28/04:00am 11.5 9.0 8.2 80 1.6 WNW 11 - 6 - 1023.0 1023.0 0.0
28/03:30am 11.5 9.0 8.2 80 1.6 WSW 11 - 6 - 1023.1 1023.1 0.0
28/03:00am 11.3 8.4 8.0 80 1.6 W 13 - 7 - 1023.1 1023.1 0.0
28/02:30am 11.3 8.0 8.2 81 1.5 WNW 15 - 8 - 1023.6 1023.6 0.0
28/02:00am 11.3 8.0 8.2 81 1.5 W 15 - 8 - 1023.8 1023.8 0.0
28/01:30am 11.3 7.7 8.3 82 1.5 WNW 17 - 9 - 1023.8 1023.8 0.0
28/01:00am 11.2 7.2 8.1 81 1.5 W 19 - 10 - 1023.6 1023.6 0.0
28/12:30am 11.3 7.2 8.0 80 1.6 W 19 - 10 - 1024.0 1024.0 0.0
28/12:00am 11.5 8.6 8.2 80 1.6 W 13 - 7 - 1024.1 1024.1 0.0
 
Date/Time
EST
Temp
°C
App
Temp
°C
Dew
Point
°C
Rel
Hum
%
Delta-T
°C
Wind Press
QNH
hPa
Press
MSL
hPa
Rain since
9am
mm
Dir  Spd
km/h
Gust
km/h
Spd
kts
Gust
kts
27/11:30pm 11.5 8.7 8.5 82 1.5 WNW 13 - 7 - 1024.5 1024.5 0.0
27/11:00pm 11.4 8.2 8.4 82 1.5 W 15 - 8 - 1024.7 1024.7 0.0
27/10:30pm 11.6 8.1 8.6 82 1.5 W 17 - 9 - 1024.5 1024.5 0.0
27/10:00pm 11.6 8.1 8.6 82 1.5 W 17 - 9 - 1024.6 1024.6 0.0
27/09:30pm 11.9 9.2 8.9 82 1.5 W 13 - 7 - 1024.4 1024.4 0.0
27/09:00pm 12.3 9.2 8.8 79 1.7 W 15 - 8 - 1024.8 1024.8 0.0
27/08:30pm 12.5 9.1 9.3 81 1.6 W 17 - 9 - 1024.8 1024.8 0.0
27/08:00pm 12.8 10.6 9.3 79 1.8 W 11 - 6 - 1024.5 1024.5 0.0
27/07:30pm 13.0 10.8 9.3 78 1.9 W 11 - 6 - 1024.7 1024.7 0.0
27/07:00pm 13.3 11.5 9.5 78 1.9 W 9 - 5 - 1024.5 1024.5 0.0
27/06:30pm 13.6 11.9 9.8 78 2.0 WNW 9 - 5 - 1024.4 1024.4 0.0
27/06:00pm 13.7 13.2 9.4 75 2.2 NNW 2 - 1 - 1024.1 1024.1 0.0
27/05:30pm 14.0 13.4 8.8 71 2.6 N 2 - 1 - 1024.1 1024.1 0.0
27/05:00pm 13.9 12.8 8.5 70 2.7 SSE 4 - 2 - 1023.8 1023.8 0.0
27/04:30pm 14.2 13.0 8.2 67 3.0 WNW 4 - 2 - 1024.2 1024.2 0.0
27/04:00pm 14.3 13.1 8.0 66 3.1 WNW 4 - 2 - 1024.2 1024.2 0.0
27/03:30pm 14.5 13.2 7.8 64 3.3 WNW 4 - 2 - 1024.1 1024.1 0.0
27/03:00pm 14.6 12.8 7.9 64 3.3 WNW 7 - 4 - 1024.2 1024.2 0.0
27/02:30pm 14.6 11.5 7.4 62 3.6 W 13 - 7 - 1024.5 1024.5 0.0
27/02:00pm 14.7 11.7 7.7 63 3.5 W 13 - 7 - 1024.7 1024.7 0.0
27/01:30pm 14.7 12.0 7.3 61 3.6 WNW 11 - 6 - 1025.1 1025.1 0.0
27/01:00pm 14.3 10.4 6.9 61 3.6 WNW 17 - 9 - 1025.3 1025.3 0.0
27/12:30pm 14.4 11.1 6.5 59 3.8 WNW 13 - 7 - 1025.5 1025.5 0.0
27/12:00pm 13.2 9.5 6.3 63 3.3 WNW 15 - 8 - 1025.7 1025.7 0.0
27/11:30am 12.8 9.1 6.4 65 3.1 WNW 15 - 8 - 1026.3 1026.3 0.0
27/11:00am 12.6 8.5 6.2 65 3.0 WNW 17 - 9 - 1026.7 1026.7 0.0
27/10:30am 11.8 7.1 6.1 68 2.7 WNW 20 - 11 - 1027.2 1027.2 0.0
27/10:00am 11.0 6.4 5.5 69 2.5 WNW 19 - 10 - 1027.2 1027.2 0.0
27/09:30am 10.3 5.4 5.1 70 2.4 W 20 - 11 - 1027.2 1027.2 0.0
27/09:00am 9.4 4.0 4.6 72 2.1 W 22 - 12 - 1027.0 1027.0 0.0
27/08:30am 8.9 3.5 4.3 73 2.0 W 22 - 12 - 1026.7 1026.7 0.0
27/08:00am 8.6 3.6 4.4 75 1.8 W 20 - 11 - 1026.6 1026.6 0.0
27/07:30am 8.2 3.2 4.4 77 1.7 WNW 20 - 11 - 1026.6 1026.6 0.0
27/07:00am 7.9 2.5 4.3 78 1.6 W 22 - 12 - 1026.5 1026.5 0.0
27/06:30am 8.2 3.2 4.6 78 1.6 W 20 - 11 - 1026.3 1026.3 0.0
27/06:00am 8.4 3.5 4.2 75 1.8 WNW 19 - 10 - 1026.0 1026.0 0.0
27/05:30am 8.4 3.5 4.0 74 1.9 W 19 - 10 - 1025.8 1025.8 0.0
27/05:00am 8.4 3.9 4.4 76 1.7 W 17 - 9 - 1025.7 1025.7 0.0
27/04:30am 8.2 3.1 4.2 76 1.7 W 20 - 11 - 1025.7 1025.7 0.0
27/04:00am 8.6 3.7 4.2 74 1.9 WNW 19 - 10 - 1025.7 1025.7 0.0
27/03:30am 9.0 4.2 4.6 74 2.0 WNW 19 - 10 - 1025.4 1025.4 0.0
27/03:00am 9.6 4.7 4.2 69 2.4 W 19 - 10 - 1025.2 1025.2 0.0
27/02:30am 9.7 5.2 4.3 69 2.4 W 17 - 9 - 1025.4 1025.4 0.0
27/02:00am 10.3 5.6 5.3 71 2.3 W 19 - 10 - 1025.4 1025.4 0.0
27/01:30am 10.0 5.5 6.0 76 1.8 W 19 - 10 - 1025.6 1025.6 0.0
27/01:00am 9.8 6.4 6.0 77 1.7 WNW 13 - 7 - 1025.2 1025.2 0.0
27/12:30am 9.8 5.6 5.8 76 1.8 WNW 17 - 9 - 1025.3 1025.3 0.0
27/12:00am 10.1 6.4 6.3 77 1.8 WNW 15 - 8 - 1025.1 1025.1 0.0
 
Date/Time
EST
Temp
°C
App
Temp
°C
Dew
Point
°C
Rel
Hum
%
Delta-T
°C
Wind Press
QNH
hPa
Press
MSL
hPa
Rain since
9am
mm
Dir  Spd
km/h
Gust
km/h
Spd
kts
Gust
kts
26/11:30pm 10.2 5.6 6.4 77 1.8 W 20 - 11 - 1025.4 1025.4 0.0
26/11:00pm 10.3 5.8 6.3 76 1.9 W 19 - 10 - 1025.7 1025.7 0.0
26/10:30pm 10.8 6.7 6.4 74 2.1 W 17 - 9 - 1025.4 1025.4 0.0
26/10:00pm 11.3 8.2 7.2 76 2.0 W 13 - 7 - 1025.2 1025.2 0.0
26/09:30pm 12.0 9.4 7.9 76 2.0 WNW 11 - 6 - 1024.9 1024.9 0.0
26/09:00pm 12.5 10.3 8.0 74 2.2 WNW 9 - 5 - 1024.8 1024.8 0.0
26/08:30pm 12.5 10.3 8.0 74 2.2 WNW 9 - 5 - 1024.8 1024.8 0.0
26/08:00pm 12.7 10.6 8.4 75 2.1 W 9 - 5 - 1024.6 1024.6 0.0
26/07:30pm 12.9 11.7 8.0 72 2.4 WNW 4 - 2 - 1024.3 1024.3 0.0
26/07:00pm 13.8 12.4 7.1 64 3.2 NNW 4 - 2 - 1023.9 1023.9 0.0
26/06:30pm 14.6 13.1 5.1 53 4.5 NE 2 - 1 - 1023.4 1023.4 0.0
26/06:00pm 14.6 12.7 4.9 52 4.5 SSE 4 - 2 - 1023.1 1023.1 0.0
26/05:30pm 14.7 12.4 4.7 51 4.7 SSE 6 - 3 - 1022.8 1022.8 0.0
26/05:00pm 15.3 12.7 4.4 48 5.1 SE 7 - 4 - 1022.3 1022.3 0.0
26/04:30pm 15.8 12.8 3.9 45 5.5 ESE 9 - 5 - 1022.0 1022.0 0.0
26/04:00pm 16.7 13.6 3.4 41 6.1 ESE 9 - 5 - 1021.8 1021.8 0.0
26/03:30pm 18.3 15.4 2.6 35 7.2 NW 7 - 4 - 1021.8 1021.8 0.0
26/03:00pm 18.4 15.1 2.7 35 7.2 WNW 9 - 5 - 1021.6 1021.6 0.0
26/02:30pm 18.4 15.3 1.4 32 7.6 NW 7 - 4 - 1021.4 1021.4 0.0
26/02:00pm 18.0 15.3 2.7 36 7.0 WNW 6 - 3 - 1021.3 1021.3 0.0
26/01:30pm 18.1 14.9 3.2 37 6.9 WNW 9 - 5 - 1021.5 1021.5 0.0
26/01:00pm 17.8 15.0 2.9 37 6.8 W 7 - 4 - 1021.5 1021.5 0.0
26/12:30pm 17.0 14.1 4.7 44 5.8 W 9 - 5 - 1021.5 1021.5 0.0
26/12:00pm 15.2 10.3 4.3 48 5.0 W 19 - 10 - 1021.8 1021.8 0.0
26/11:30am 14.4 9.3 4.1 50 4.7 WSW 20 - 11 - 1022.2 1022.2 0.0
26/11:00am 14.1 8.7 4.7 53 4.3 W 22 - 12 - 1022.4 1022.4 0.0
26/10:30am 13.3 8.6 5.2 58 3.8 W 19 - 10 - 1022.6 1022.6 0.0
26/10:00am 12.6 7.9 5.3 61 3.4 WSW 19 - 10 - 1022.7 1022.7 0.0
26/09:30am 11.6 7.0 5.5 66 2.8 W 19 - 10 - 1022.4 1022.4 0.0
26/09:00am 10.5 5.5 4.6 67 2.6 W 20 - 11 - 1022.1 1022.1 0.0
26/08:30am 9.9 4.7 5.5 74 2.0 W 22 - 12 - 1021.8 1021.8 0.0
26/08:00am 9.2 3.5 5.0 75 1.9 W 24 - 13 - 1021.6 1021.6 0.0
26/07:30am 8.6 3.6 4.8 77 1.7 W 20 - 11 - 1021.3 1021.3 0.0

Latest Capital City Observations: Canberra | Sydney | Melbourne | Brisbane | Adelaide | Perth | Hobart | Darwin

Other Formats:

Comma delimited format used in spreadsheet applications
http://www.bom.gov.au/fwo/IDN60901/IDN60901.94768.axf

JavaScript Object Notation format (JSON) in row-major order
http://www.bom.gov.au/fwo/IDN60901/IDN60901.94768.json